sensor_id;sensor_type;location;lat;lon;timestamp;temperature;humidity
16402;DHT22;8310;44.626;11.176;2022-09-03T00:00:03;23.90;56.40
16402;DHT22;8310;44.626;11.176;2022-09-03T00:02:37;23.90;56.50
16402;DHT22;8310;44.626;11.176;2022-09-03T00:05:08;23.90;56.40
16402;DHT22;8310;44.626;11.176;2022-09-03T00:07:44;23.80;56.50
16402;DHT22;8310;44.626;11.176;2022-09-03T00:10:19;23.80;57.20
16402;DHT22;8310;44.626;11.176;2022-09-03T00:12:51;23.80;56.60
16402;DHT22;8310;44.626;11.176;2022-09-03T00:15:21;23.70;56.50
16402;DHT22;8310;44.626;11.176;2022-09-03T00:17:53;23.70;56.50
16402;DHT22;8310;44.626;11.176;2022-09-03T00:20:27;23.70;56.50
16402;DHT22;8310;44.626;11.176;2022-09-03T00:22:59;23.70;56.60
16402;DHT22;8310;44.626;11.176;2022-09-03T00:25:33;23.70;56.70
16402;DHT22;8310;44.626;11.176;2022-09-03T00:28:10;23.70;56.70
16402;DHT22;8310;44.626;11.176;2022-09-03T00:30:40;23.70;56.70
16402;DHT22;8310;44.626;11.176;2022-09-03T00:33:11;23.70;56.70
16402;DHT22;8310;44.626;11.176;2022-09-03T00:35:46;23.70;56.70
16402;DHT22;8310;44.626;11.176;2022-09-03T00:38:16;23.70;56.80
16402;DHT22;8310;44.626;11.176;2022-09-03T00:41:00;23.70;56.70
16402;DHT22;8310;44.626;11.176;2022-09-03T00:43:42;23.70;56.80
16402;DHT22;8310;44.626;11.176;2022-09-03T00:46:17;23.70;56.80
16402;DHT22;8310;44.626;11.176;2022-09-03T00:48:59;23.70;56.80
16402;DHT22;8310;44.626;11.176;2022-09-03T00:51:37;23.70;56.80
16402;DHT22;8310;44.626;11.176;2022-09-03T00:54:13;23.70;56.80
16402;DHT22;8310;44.626;11.176;2022-09-03T00:56:49;23.70;56.90
16402;DHT22;8310;44.626;11.176;2022-09-03T00:59:31;23.70;56.90
16402;DHT22;8310;44.626;11.176;2022-09-03T01:02:10;23.70;56.90
16402;DHT22;8310;44.626;11.176;2022-09-03T01:04:50;23.70;56.90
16402;DHT22;8310;44.626;11.176;2022-09-03T01:07:31;23.70;56.80
16402;DHT22;8310;44.626;11.176;2022-09-03T01:10:12;23.70;56.80
16402;DHT22;8310;44.626;11.176;2022-09-03T01:12:48;23.60;56.80
16402;DHT22;8310;44.626;11.176;2022-09-03T01:15:26;23.60;56.80
16402;DHT22;8310;44.626;11.176;2022-09-03T01:18:06;23.60;56.80
16402;DHT22;8310;44.626;11.176;2022-09-03T01:20:44;23.60;56.90
16402;DHT22;8310;44.626;11.176;2022-09-03T01:23:42;23.60;57.50
16402;DHT22;8310;44.626;11.176;2022-09-03T01:26:28;23.60;56.90
16402;DHT22;8310;44.626;11.176;2022-09-03T01:29:07;23.60;56.90
16402;DHT22;8310;44.626;11.176;2022-09-03T01:31:46;23.60;56.90
16402;DHT22;8310;44.626;11.176;2022-09-03T01:34:23;23.60;56.90
16402;DHT22;8310;44.626;11.176;2022-09-03T01:37:02;23.60;56.90
16402;DHT22;8310;44.626;11.176;2022-09-03T01:39:40;23.50;56.90
16402;DHT22;8310;44.626;11.176;2022-09-03T01:42:18;23.50;57.00
16402;DHT22;8310;44.626;11.176;2022-09-03T01:45:28;23.50;57.00
16402;DHT22;8310;44.626;11.176;2022-09-03T01:48:19;23.50;57.00
16402;DHT22;8310;44.626;11.176;2022-09-03T01:50:52;23.50;57.00
16402;DHT22;8310;44.626;11.176;2022-09-03T01:53:44;23.50;57.00
16402;DHT22;8310;44.626;11.176;2022-09-03T01:56:24;23.50;57.00
16402;DHT22;8310;44.626;11.176;2022-09-03T01:59:02;23.50;57.00
16402;DHT22;8310;44.626;11.176;2022-09-03T02:01:36;23.50;57.00
16402;DHT22;8310;44.626;11.176;2022-09-03T02:04:16;23.40;56.90
16402;DHT22;8310;44.626;11.176;2022-09-03T02:06:45;23.40;56.90
16402;DHT22;8310;44.626;11.176;2022-09-03T02:09:13;23.30;56.90
16402;DHT22;8310;44.626;11.176;2022-09-03T02:11:42;23.30;56.80
16402;DHT22;8310;44.626;11.176;2022-09-03T02:14:12;23.20;56.70
16402;DHT22;8310;44.626;11.176;2022-09-03T02:16:42;23.10;56.60
16402;DHT22;8310;44.626;11.176;2022-09-03T02:19:13;23.00;56.60
16402;DHT22;8310;44.626;11.176;2022-09-03T02:21:45;22.90;56.60
16402;DHT22;8310;44.626;11.176;2022-09-03T02:24:14;22.90;56.70
16402;DHT22;8310;44.626;11.176;2022-09-03T02:26:41;22.90;56.80
16402;DHT22;8310;44.626;11.176;2022-09-03T02:29:09;22.90;56.80
16402;DHT22;8310;44.626;11.176;2022-09-03T02:31:41;22.80;56.90
16402;DHT22;8310;44.626;11.176;2022-09-03T02:34:08;22.90;57.00
16402;DHT22;8310;44.626;11.176;2022-09-03T02:36:38;22.90;57.00
16402;DHT22;8310;44.626;11.176;2022-09-03T02:39:07;22.90;57.00
16402;DHT22;8310;44.626;11.176;2022-09-03T02:41:35;22.90;57.00
16402;DHT22;8310;44.626;11.176;2022-09-03T02:44:04;22.90;57.00
16402;DHT22;8310;44.626;11.176;2022-09-03T02:46:37;22.90;57.00
16402;DHT22;8310;44.626;11.176;2022-09-03T02:49:07;22.90;57.10
16402;DHT22;8310;44.626;11.176;2022-09-03T02:51:36;22.80;57.10
16402;DHT22;8310;44.626;11.176;2022-09-03T02:54:04;22.80;57.10
16402;DHT22;8310;44.626;11.176;2022-09-03T02:56:32;22.80;57.00
16402;DHT22;8310;44.626;11.176;2022-09-03T02:59:00;22.80;57.00
16402;DHT22;8310;44.626;11.176;2022-09-03T03:01:28;22.70;57.00
16402;DHT22;8310;44.626;11.176;2022-09-03T03:03:56;22.70;57.10
16402;DHT22;8310;44.626;11.176;2022-09-03T03:06:25;22.70;57.10
16402;DHT22;8310;44.626;11.176;2022-09-03T03:08:52;22.70;57.10
16402;DHT22;8310;44.626;11.176;2022-09-03T03:11:22;22.70;57.10
16402;DHT22;8310;44.626;11.176;2022-09-03T03:13:52;22.60;57.10
16402;DHT22;8310;44.626;11.176;2022-09-03T03:16:19;22.60;57.10
16402;DHT22;8310;44.626;11.176;2022-09-03T03:18:47;22.60;57.10
16402;DHT22;8310;44.626;11.176;2022-09-03T03:21:16;22.60;57.20
16402;DHT22;8310;44.626;11.176;2022-09-03T03:23:46;22.60;57.20
16402;DHT22;8310;44.626;11.176;2022-09-03T03:26:15;22.50;57.10
16402;DHT22;8310;44.626;11.176;2022-09-03T03:28:43;22.50;57.10
16402;DHT22;8310;44.626;11.176;2022-09-03T03:31:13;22.50;57.20
16402;DHT22;8310;44.626;11.176;2022-09-03T03:33:41;22.40;57.10
16402;DHT22;8310;44.626;11.176;2022-09-03T03:36:10;22.40;57.10
16402;DHT22;8310;44.626;11.176;2022-09-03T03:38:39;22.40;57.20
16402;DHT22;8310;44.626;11.176;2022-09-03T03:41:11;22.40;57.30
16402;DHT22;8310;44.626;11.176;2022-09-03T03:43:39;22.40;57.20
16402;DHT22;8310;44.626;11.176;2022-09-03T03:46:07;22.30;57.10
16402;DHT22;8310;44.626;11.176;2022-09-03T03:48:35;22.30;57.20
16402;DHT22;8310;44.626;11.176;2022-09-03T03:51:04;22.30;57.80
16402;DHT22;8310;44.626;11.176;2022-09-03T03:53:32;22.20;57.30
16402;DHT22;8310;44.626;11.176;2022-09-03T03:56:01;22.20;57.80
16402;DHT22;8310;44.626;11.176;2022-09-03T03:58:31;22.20;57.30
16402;DHT22;8310;44.626;11.176;2022-09-03T04:01:04;22.20;57.30
16402;DHT22;8310;44.626;11.176;2022-09-03T04:03:32;22.20;57.30
16402;DHT22;8310;44.626;11.176;2022-09-03T04:05:59;22.30;57.40
16402;DHT22;8310;44.626;11.176;2022-09-03T04:08:27;22.30;57.40
16402;DHT22;8310;44.626;11.176;2022-09-03T04:10:59;22.30;57.40
16402;DHT22;8310;44.626;11.176;2022-09-03T04:13:29;22.30;57.50
16402;DHT22;8310;44.626;11.176;2022-09-03T04:16:01;22.30;57.50
16402;DHT22;8310;44.626;11.176;2022-09-03T04:18:30;22.30;57.50
16402;DHT22;8310;44.626;11.176;2022-09-03T04:21:01;22.40;57.60
16402;DHT22;8310;44.626;11.176;2022-09-03T04:23:30;22.40;57.60
16402;DHT22;8310;44.626;11.176;2022-09-03T04:25:59;22.40;57.50
16402;DHT22;8310;44.626;11.176;2022-09-03T04:28:27;22.40;57.60
16402;DHT22;8310;44.626;11.176;2022-09-03T04:30:59;22.40;57.60
16402;DHT22;8310;44.626;11.176;2022-09-03T04:33:27;22.40;57.60
16402;DHT22;8310;44.626;11.176;2022-09-03T04:36:02;22.40;57.60
16402;DHT22;8310;44.626;11.176;2022-09-03T04:38:30;22.40;57.60
16402;DHT22;8310;44.626;11.176;2022-09-03T04:41:01;22.40;57.60
16402;DHT22;8310;44.626;11.176;2022-09-03T04:43:31;22.40;57.60
16402;DHT22;8310;44.626;11.176;2022-09-03T04:46:02;22.40;57.60
16402;DHT22;8310;44.626;11.176;2022-09-03T04:48:31;22.40;57.60
16402;DHT22;8310;44.626;11.176;2022-09-03T04:51:02;22.30;57.50
16402;DHT22;8310;44.626;11.176;2022-09-03T04:53:31;22.30;57.60
16402;DHT22;8310;44.626;11.176;2022-09-03T04:55:59;22.30;57.60
16402;DHT22;8310;44.626;11.176;2022-09-03T04:58:27;22.30;57.50
16402;DHT22;8310;44.626;11.176;2022-09-03T05:00:54;22.20;57.40
16402;DHT22;8310;44.626;11.176;2022-09-03T05:03:24;22.20;57.30
16402;DHT22;8310;44.626;11.176;2022-09-03T05:05:53;22.10;57.30
16402;DHT22;8310;44.626;11.176;2022-09-03T05:08:21;22.10;57.30
16402;DHT22;8310;44.626;11.176;2022-09-03T05:10:48;22.10;57.40
16402;DHT22;8310;44.626;11.176;2022-09-03T05:13:15;22.10;57.50
16402;DHT22;8310;44.626;11.176;2022-09-03T05:15:43;22.00;57.50
16402;DHT22;8310;44.626;11.176;2022-09-03T05:18:10;22.00;57.40
16402;DHT22;8310;44.626;11.176;2022-09-03T05:20:40;22.00;57.50
16402;DHT22;8310;44.626;11.176;2022-09-03T05:23:08;22.00;57.60
16402;DHT22;8310;44.626;11.176;2022-09-03T05:25:36;22.00;57.60
16402;DHT22;8310;44.626;11.176;2022-09-03T05:28:04;22.00;57.60
16402;DHT22;8310;44.626;11.176;2022-09-03T05:30:32;22.00;57.60
16402;DHT22;8310;44.626;11.176;2022-09-03T05:33:01;22.00;57.60
16402;DHT22;8310;44.626;11.176;2022-09-03T05:35:31;22.00;57.70
16402;DHT22;8310;44.626;11.176;2022-09-03T05:38:01;22.00;57.80
16402;DHT22;8310;44.626;11.176;2022-09-03T05:40:28;22.00;57.80
16402;DHT22;8310;44.626;11.176;2022-09-03T05:42:56;22.00;57.90
16402;DHT22;8310;44.626;11.176;2022-09-03T05:45:25;22.10;58.10
16402;DHT22;8310;44.626;11.176;2022-09-03T05:47:54;22.10;58.00
16402;DHT22;8310;44.626;11.176;2022-09-03T05:50:21;22.10;58.00
16402;DHT22;8310;44.626;11.176;2022-09-03T05:52:49;22.10;58.10
16402;DHT22;8310;44.626;11.176;2022-09-03T05:55:18;22.10;58.10
16402;DHT22;8310;44.626;11.176;2022-09-03T05:57:50;22.20;58.10
16402;DHT22;8310;44.626;11.176;2022-09-03T06:00:18;22.20;58.20
16402;DHT22;8310;44.626;11.176;2022-09-03T06:02:49;22.20;58.20
16402;DHT22;8310;44.626;11.176;2022-09-03T06:05:18;22.20;58.20
16402;DHT22;8310;44.626;11.176;2022-09-03T06:07:46;22.20;58.30
16402;DHT22;8310;44.626;11.176;2022-09-03T06:10:14;22.30;58.30
16402;DHT22;8310;44.626;11.176;2022-09-03T06:12:43;22.30;58.20
16402;DHT22;8310;44.626;11.176;2022-09-03T06:15:15;22.20;58.00
16402;DHT22;8310;44.626;11.176;2022-09-03T06:17:42;22.20;58.00
16402;DHT22;8310;44.626;11.176;2022-09-03T06:20:10;22.10;58.00
16402;DHT22;8310;44.626;11.176;2022-09-03T06:22:38;22.00;58.10
16402;DHT22;8310;44.626;11.176;2022-09-03T06:25:06;22.00;58.40
16402;DHT22;8310;44.626;11.176;2022-09-03T06:27:37;22.10;58.50
16402;DHT22;8310;44.626;11.176;2022-09-03T06:30:07;22.10;58.60
16402;DHT22;8310;44.626;11.176;2022-09-03T06:32:43;22.20;58.80
16402;DHT22;8310;44.626;11.176;2022-09-03T06:35:13;22.30;58.90
16402;DHT22;8310;44.626;11.176;2022-09-03T06:37:42;22.50;59.10
16402;DHT22;8310;44.626;11.176;2022-09-03T06:40:10;22.50;59.00
16402;DHT22;8310;44.626;11.176;2022-09-03T06:42:38;22.60;59.00
16402;DHT22;8310;44.626;11.176;2022-09-03T06:45:09;22.70;59.00
16402;DHT22;8310;44.626;11.176;2022-09-03T06:47:37;22.70;58.90
16402;DHT22;8310;44.626;11.176;2022-09-03T06:50:05;22.70;59.00
16402;DHT22;8310;44.626;11.176;2022-09-03T06:52:39;22.80;59.10
16402;DHT22;8310;44.626;11.176;2022-09-03T06:55:08;22.90;59.30
16402;DHT22;8310;44.626;11.176;2022-09-03T06:57:35;23.00;59.50
16402;DHT22;8310;44.626;11.176;2022-09-03T07:00:03;23.10;59.60
16402;DHT22;8310;44.626;11.176;2022-09-03T07:02:33;23.30;59.80
16402;DHT22;8310;44.626;11.176;2022-09-03T07:05:01;23.40;59.90
16402;DHT22;8310;44.626;11.176;2022-09-03T07:07:29;23.50;59.90
16402;DHT22;8310;44.626;11.176;2022-09-03T07:09:59;23.70;59.90
16402;DHT22;8310;44.626;11.176;2022-09-03T07:12:27;23.80;59.60
16402;DHT22;8310;44.626;11.176;2022-09-03T07:14:54;23.80;59.50
16402;DHT22;8310;44.626;11.176;2022-09-03T07:17:24;23.90;59.60
16402;DHT22;8310;44.626;11.176;2022-09-03T07:19:53;23.90;60.50
16402;DHT22;8310;44.626;11.176;2022-09-03T07:22:21;24.00;59.80
16402;DHT22;8310;44.626;11.176;2022-09-03T07:24:48;24.00;59.40
16402;DHT22;8310;44.626;11.176;2022-09-03T07:27:17;24.00;59.20
16402;DHT22;8310;44.626;11.176;2022-09-03T07:29:44;24.00;59.40
16402;DHT22;8310;44.626;11.176;2022-09-03T07:32:12;24.00;59.30
16402;DHT22;8310;44.626;11.176;2022-09-03T07:34:40;24.00;59.20
16402;DHT22;8310;44.626;11.176;2022-09-03T07:37:10;24.00;59.20
16402;DHT22;8310;44.626;11.176;2022-09-03T07:39:38;24.00;59.30
16402;DHT22;8310;44.626;11.176;2022-09-03T07:42:06;24.10;59.40
16402;DHT22;8310;44.626;11.176;2022-09-03T07:44:35;24.10;59.40
16402;DHT22;8310;44.626;11.176;2022-09-03T07:47:03;24.20;59.30
16402;DHT22;8310;44.626;11.176;2022-09-03T07:49:31;24.10;59.10
16402;DHT22;8310;44.626;11.176;2022-09-03T07:51:59;24.10;59.30
16402;DHT22;8310;44.626;11.176;2022-09-03T07:54:29;24.20;59.70
16402;DHT22;8310;44.626;11.176;2022-09-03T07:56:56;24.40;60.40
16402;DHT22;8310;44.626;11.176;2022-09-03T07:59:23;24.60;60.80
16402;DHT22;8310;44.626;11.176;2022-09-03T08:01:56;24.90;61.00
16402;DHT22;8310;44.626;11.176;2022-09-03T08:04:26;25.10;60.80
16402;DHT22;8310;44.626;11.176;2022-09-03T08:06:53;25.20;60.60
16402;DHT22;8310;44.626;11.176;2022-09-03T08:09:21;25.30;60.30
16402;DHT22;8310;44.626;11.176;2022-09-03T08:11:51;25.30;60.20
16402;DHT22;8310;44.626;11.176;2022-09-03T08:14:18;25.40;59.90
16402;DHT22;8310;44.626;11.176;2022-09-03T08:16:46;25.30;59.30
16402;DHT22;8310;44.626;11.176;2022-09-03T08:19:15;25.20;59.00
16402;DHT22;8310;44.626;11.176;2022-09-03T08:21:42;25.10;59.10
16402;DHT22;8310;44.626;11.176;2022-09-03T08:24:14;25.00;59.20
16402;DHT22;8310;44.626;11.176;2022-09-03T08:26:42;25.00;59.40
16402;DHT22;8310;44.626;11.176;2022-09-03T08:29:11;25.00;59.20
16402;DHT22;8310;44.626;11.176;2022-09-03T08:31:40;25.00;59.30
16402;DHT22;8310;44.626;11.176;2022-09-03T08:34:08;25.00;59.40
16402;DHT22;8310;44.626;11.176;2022-09-03T08:36:37;25.10;59.60
16402;DHT22;8310;44.626;11.176;2022-09-03T08:39:07;25.20;60.00
16402;DHT22;8310;44.626;11.176;2022-09-03T08:41:45;25.30;60.30
16402;DHT22;8310;44.626;11.176;2022-09-03T08:44:22;25.50;60.70
16402;DHT22;8310;44.626;11.176;2022-09-03T08:46:56;25.70;60.40
16402;DHT22;8310;44.626;11.176;2022-09-03T08:49:30;25.90;60.60
16402;DHT22;8310;44.626;11.176;2022-09-03T08:52:01;25.90;60.40
16402;DHT22;8310;44.626;11.176;2022-09-03T08:54:30;26.00;60.00
16402;DHT22;8310;44.626;11.176;2022-09-03T08:57:00;26.00;60.10
16402;DHT22;8310;44.626;11.176;2022-09-03T08:59:30;26.10;60.40
16402;DHT22;8310;44.626;11.176;2022-09-03T09:02:05;26.20;60.70
16402;DHT22;8310;44.626;11.176;2022-09-03T09:04:47;26.30;60.90
16402;DHT22;8310;44.626;11.176;2022-09-03T09:07:24;26.50;60.50
16402;DHT22;8310;44.626;11.176;2022-09-03T09:09:59;26.40;59.80
16402;DHT22;8310;44.626;11.176;2022-09-03T09:12:36;26.30;59.40
16402;DHT22;8310;44.626;11.176;2022-09-03T09:15:12;26.20;59.40
16402;DHT22;8310;44.626;11.176;2022-09-03T09:17:51;26.20;59.60
16402;DHT22;8310;44.626;11.176;2022-09-03T09:20:31;26.10;59.80
16402;DHT22;8310;44.626;11.176;2022-09-03T09:23:04;26.20;60.00
16402;DHT22;8310;44.626;11.176;2022-09-03T09:25:40;26.20;59.90
16402;DHT22;8310;44.626;11.176;2022-09-03T09:28:16;26.20;59.80
16402;DHT22;8310;44.626;11.176;2022-09-03T09:30:53;26.20;59.90
16402;DHT22;8310;44.626;11.176;2022-09-03T09:33:21;26.30;60.00
16402;DHT22;8310;44.626;11.176;2022-09-03T09:35:50;26.30;60.00
16402;DHT22;8310;44.626;11.176;2022-09-03T09:38:27;26.40;60.30
16402;DHT22;8310;44.626;11.176;2022-09-03T09:40:54;26.50;60.50
16402;DHT22;8310;44.626;11.176;2022-09-03T09:43:23;26.50;60.20
16402;DHT22;8310;44.626;11.176;2022-09-03T09:45:53;26.50;60.10
16402;DHT22;8310;44.626;11.176;2022-09-03T09:48:31;26.60;60.30
16402;DHT22;8310;44.626;11.176;2022-09-03T09:51:04;26.70;60.50
16402;DHT22;8310;44.626;11.176;2022-09-03T09:53:34;26.80;60.60
16402;DHT22;8310;44.626;11.176;2022-09-03T09:56:37;26.80;60.30
16402;DHT22;8310;44.626;11.176;2022-09-03T09:59:15;26.80;60.00
16402;DHT22;8310;44.626;11.176;2022-09-03T10:02:06;26.80;59.90
16402;DHT22;8310;44.626;11.176;2022-09-03T10:04:35;26.80;59.80
16402;DHT22;8310;44.626;11.176;2022-09-03T10:07:15;26.70;59.70
16402;DHT22;8310;44.626;11.176;2022-09-03T10:10:04;26.70;59.80
16402;DHT22;8310;44.626;11.176;2022-09-03T10:12:39;26.70;59.90
16402;DHT22;8310;44.626;11.176;2022-09-03T10:15:19;26.80;60.60
16402;DHT22;8310;44.626;11.176;2022-09-03T10:17:59;26.80;60.20
16402;DHT22;8310;44.626;11.176;2022-09-03T10:20:36;26.90;60.00
16402;DHT22;8310;44.626;11.176;2022-09-03T10:23:12;26.90;60.00
16402;DHT22;8310;44.626;11.176;2022-09-03T10:25:57;26.90;59.90
16402;DHT22;8310;44.626;11.176;2022-09-03T10:28:33;26.90;59.90
16402;DHT22;8310;44.626;11.176;2022-09-03T10:31:12;26.90;59.80
16402;DHT22;8310;44.626;11.176;2022-09-03T10:33:48;26.90;59.80
16402;DHT22;8310;44.626;11.176;2022-09-03T10:36:20;26.90;59.90
16402;DHT22;8310;44.626;11.176;2022-09-03T10:38:58;26.90;59.90
16402;DHT22;8310;44.626;11.176;2022-09-03T10:41:39;26.90;59.70
16402;DHT22;8310;44.626;11.176;2022-09-03T10:44:26;26.80;59.60
16402;DHT22;8310;44.626;11.176;2022-09-03T10:47:12;26.80;59.60
16402;DHT22;8310;44.626;11.176;2022-09-03T10:49:58;26.80;59.90
16402;DHT22;8310;44.626;11.176;2022-09-03T10:52:35;26.80;59.80
16402;DHT22;8310;44.626;11.176;2022-09-03T10:55:15;26.80;59.60
16402;DHT22;8310;44.626;11.176;2022-09-03T10:57:50;26.80;59.60
16402;DHT22;8310;44.626;11.176;2022-09-03T11:00:18;26.80;59.60
16402;DHT22;8310;44.626;11.176;2022-09-03T11:05:59;26.80;59.90
16402;DHT22;8310;44.626;11.176;2022-09-03T11:08:31;26.90;60.00
16402;DHT22;8310;44.626;11.176;2022-09-03T11:11:10;27.00;60.10
16402;DHT22;8310;44.626;11.176;2022-09-03T11:13:43;27.10;60.30
16402;DHT22;8310;44.626;11.176;2022-09-03T11:16:17;27.10;60.30
16402;DHT22;8310;44.626;11.176;2022-09-03T11:18:49;27.20;60.30
16402;DHT22;8310;44.626;11.176;2022-09-03T11:21:21;27.30;60.60
16402;DHT22;8310;44.626;11.176;2022-09-03T11:23:57;27.40;60.50
16402;DHT22;8310;44.626;11.176;2022-09-03T11:26:29;27.50;60.50
16402;DHT22;8310;44.626;11.176;2022-09-03T11:29:08;27.50;60.30
16402;DHT22;8310;44.626;11.176;2022-09-03T11:31:54;27.60;60.30
16402;DHT22;8310;44.626;11.176;2022-09-03T11:34:29;27.60;59.90
16402;DHT22;8310;44.626;11.176;2022-09-03T11:37:15;27.50;59.80
16402;DHT22;8310;44.626;11.176;2022-09-03T11:39:55;27.50;59.90
16402;DHT22;8310;44.626;11.176;2022-09-03T11:42:28;27.50;59.90
16402;DHT22;8310;44.626;11.176;2022-09-03T11:45:10;27.50;59.80
16402;DHT22;8310;44.626;11.176;2022-09-03T11:47:43;27.50;60.00
16402;DHT22;8310;44.626;11.176;2022-09-03T11:50:19;27.50;60.00
16402;DHT22;8310;44.626;11.176;2022-09-03T11:52:50;27.60;60.40
16402;DHT22;8310;44.626;11.176;2022-09-03T11:55:29;27.70;60.50
16402;DHT22;8310;44.626;11.176;2022-09-03T11:58:25;27.70;60.20
16402;DHT22;8310;44.626;11.176;2022-09-03T12:00:57;27.70;60.00
16402;DHT22;8310;44.626;11.176;2022-09-03T12:03:28;27.80;60.40
16402;DHT22;8310;44.626;11.176;2022-09-03T12:09:20;27.90;60.80
16402;DHT22;8310;44.626;11.176;2022-09-03T12:11:58;28.10;61.00
16402;DHT22;8310;44.626;11.176;2022-09-03T12:14:34;28.20;60.60
16402;DHT22;8310;44.626;11.176;2022-09-03T12:17:13;28.20;60.20
16402;DHT22;8310;44.626;11.176;2022-09-03T12:19:49;28.10;60.10
16402;DHT22;8310;44.626;11.176;2022-09-03T12:22:20;28.20;60.20
16402;DHT22;8310;44.626;11.176;2022-09-03T12:24:49;28.20;60.50
16402;DHT22;8310;44.626;11.176;2022-09-03T12:27:20;28.20;60.50
16402;DHT22;8310;44.626;11.176;2022-09-03T12:29:54;28.30;60.40
16402;DHT22;8310;44.626;11.176;2022-09-03T12:32:25;28.30;60.00
16402;DHT22;8310;44.626;11.176;2022-09-03T12:34:55;28.30;60.10
16402;DHT22;8310;44.626;11.176;2022-09-03T12:37:24;28.30;60.40
16402;DHT22;8310;44.626;11.176;2022-09-03T12:39:54;28.40;60.60
16402;DHT22;8310;44.626;11.176;2022-09-03T12:42:25;28.40;60.70
16402;DHT22;8310;44.626;11.176;2022-09-03T12:44:54;28.50;60.90
16402;DHT22;8310;44.626;11.176;2022-09-03T12:47:23;28.60;60.80
16402;DHT22;8310;44.626;11.176;2022-09-03T12:49:55;28.70;61.00
16402;DHT22;8310;44.626;11.176;2022-09-03T12:52:26;28.80;60.70
16402;DHT22;8310;44.626;11.176;2022-09-03T12:54:58;28.80;60.60
16402;DHT22;8310;44.626;11.176;2022-09-03T12:57:30;28.80;60.70
16402;DHT22;8310;44.626;11.176;2022-09-03T13:00:04;28.80;60.60
16402;DHT22;8310;44.626;11.176;2022-09-03T13:02:38;28.90;61.50
16402;DHT22;8310;44.626;11.176;2022-09-03T13:05:10;28.90;60.90
16402;DHT22;8310;44.626;11.176;2022-09-03T13:07:48;29.10;61.50
16402;DHT22;8310;44.626;11.176;2022-09-03T13:10:24;29.20;61.50
16402;DHT22;8310;44.626;11.176;2022-09-03T13:12:58;29.30;61.40
16402;DHT22;8310;44.626;11.176;2022-09-03T13:15:27;29.40;61.20
16402;DHT22;8310;44.626;11.176;2022-09-03T13:18:07;29.40;60.60
16402;DHT22;8310;44.626;11.176;2022-09-03T13:20:45;29.40;60.70
16402;DHT22;8310;44.626;11.176;2022-09-03T13:23:31;29.40;60.10
16402;DHT22;8310;44.626;11.176;2022-09-03T13:26:10;29.30;60.00
16402;DHT22;8310;44.626;11.176;2022-09-03T13:28:53;29.30;59.90
16402;DHT22;8310;44.626;11.176;2022-09-03T13:31:30;29.10;59.80
16402;DHT22;8310;44.626;11.176;2022-09-03T13:34:02;29.20;60.50
16402;DHT22;8310;44.626;11.176;2022-09-03T13:36:37;29.20;60.70
16402;DHT22;8310;44.626;11.176;2022-09-03T13:39:19;29.40;61.10
16402;DHT22;8310;44.626;11.176;2022-09-03T13:41:52;29.50;61.10
16402;DHT22;8310;44.626;11.176;2022-09-03T13:44:33;29.60;61.40
16402;DHT22;8310;44.626;11.176;2022-09-03T13:47:09;29.80;61.40
16402;DHT22;8310;44.626;11.176;2022-09-03T13:49:42;29.90;61.10
16402;DHT22;8310;44.626;11.176;2022-09-03T13:52:47;29.90;60.90
16402;DHT22;8310;44.626;11.176;2022-09-03T13:55:28;30.00;61.30
16402;DHT22;8310;44.626;11.176;2022-09-03T13:58:05;30.10;61.50
16402;DHT22;8310;44.626;11.176;2022-09-03T14:00:39;30.30;61.70
16402;DHT22;8310;44.626;11.176;2022-09-03T14:03:15;30.40;61.30
16402;DHT22;8310;44.626;11.176;2022-09-03T14:05:53;30.50;61.20
16402;DHT22;8310;44.626;11.176;2022-09-03T14:08:33;30.50;61.20
16402;DHT22;8310;44.626;11.176;2022-09-03T14:11:13;30.60;61.00
16402;DHT22;8310;44.626;11.176;2022-09-03T14:13:57;30.60;60.60
16402;DHT22;8310;44.626;11.176;2022-09-03T14:16:33;30.50;60.20
16402;DHT22;8310;44.626;11.176;2022-09-03T14:19:08;30.40;59.50
16402;DHT22;8310;44.626;11.176;2022-09-03T14:21:43;30.10;59.00
16402;DHT22;8310;44.626;11.176;2022-09-03T14:24:14;29.90;59.00
16402;DHT22;8310;44.626;11.176;2022-09-03T14:26:50;29.80;59.20
16402;DHT22;8310;44.626;11.176;2022-09-03T14:29:24;29.70;59.40
16402;DHT22;8310;44.626;11.176;2022-09-03T14:32:08;29.70;59.50
16402;DHT22;8310;44.626;11.176;2022-09-03T14:34:47;29.60;59.30
16402;DHT22;8310;44.626;11.176;2022-09-03T14:37:28;29.50;59.40
16402;DHT22;8310;44.626;11.176;2022-09-03T14:40:09;29.50;59.70
16402;DHT22;8310;44.626;11.176;2022-09-03T14:43:08;29.60;59.80
16402;DHT22;8310;44.626;11.176;2022-09-03T14:46:00;29.60;59.60
16402;DHT22;8310;44.626;11.176;2022-09-03T14:48:41;29.60;59.70
16402;DHT22;8310;44.626;11.176;2022-09-03T14:51:25;29.70;59.90
16402;DHT22;8310;44.626;11.176;2022-09-03T14:57:13;29.70;59.60
16402;DHT22;8310;44.626;11.176;2022-09-03T15:00:03;29.70;59.60
16402;DHT22;8310;44.626;11.176;2022-09-03T15:03:02;29.80;59.80
16402;DHT22;8310;44.626;11.176;2022-09-03T15:05:46;29.80;59.60
16402;DHT22;8310;44.626;11.176;2022-09-03T15:08:27;29.70;59.30
16402;DHT22;8310;44.626;11.176;2022-09-03T15:11:02;29.60;59.10
16402;DHT22;8310;44.626;11.176;2022-09-03T15:13:33;29.50;58.80
16402;DHT22;8310;44.626;11.176;2022-09-03T15:16:17;29.40;58.80
16402;DHT22;8310;44.626;11.176;2022-09-03T15:19:05;29.30;59.10
16402;DHT22;8310;44.626;11.176;2022-09-03T15:21:51;29.30;59.20
16402;DHT22;8310;44.626;11.176;2022-09-03T15:24:28;29.20;59.10
16402;DHT22;8310;44.626;11.176;2022-09-03T15:27:16;29.20;58.90
16402;DHT22;8310;44.626;11.176;2022-09-03T15:29:50;29.20;58.90
16402;DHT22;8310;44.626;11.176;2022-09-03T15:32:27;29.10;58.80
16402;DHT22;8310;44.626;11.176;2022-09-03T15:35:24;29.00;58.80
16402;DHT22;8310;44.626;11.176;2022-09-03T15:37:57;29.00;58.90
16402;DHT22;8310;44.626;11.176;2022-09-03T15:40:28;28.90;58.70
16402;DHT22;8310;44.626;11.176;2022-09-03T15:43:03;28.90;58.70
16402;DHT22;8310;44.626;11.176;2022-09-03T15:45:39;28.80;58.70
16402;DHT22;8310;44.626;11.176;2022-09-03T15:48:20;28.80;58.80
16402;DHT22;8310;44.626;11.176;2022-09-03T15:51:02;28.80;58.90
16402;DHT22;8310;44.626;11.176;2022-09-03T15:53:38;28.80;59.10
16402;DHT22;8310;44.626;11.176;2022-09-03T15:56:14;28.80;59.00
16402;DHT22;8310;44.626;11.176;2022-09-03T15:58:51;28.80;59.00
16402;DHT22;8310;44.626;11.176;2022-09-03T16:01:35;28.80;59.20
16402;DHT22;8310;44.626;11.176;2022-09-03T16:04:17;28.80;59.20
16402;DHT22;8310;44.626;11.176;2022-09-03T16:07:06;28.90;59.20
16402;DHT22;8310;44.626;11.176;2022-09-03T16:09:44;28.90;59.10
16402;DHT22;8310;44.626;11.176;2022-09-03T16:12:20;28.90;59.10
16402;DHT22;8310;44.626;11.176;2022-09-03T16:14:57;28.90;59.20
16402;DHT22;8310;44.626;11.176;2022-09-03T16:17:30;28.90;59.20
16402;DHT22;8310;44.626;11.176;2022-09-03T16:20:03;28.90;59.20